sensor_id;sensor_type;location;lat;lon;timestamp;temperature;humidity
31819;DHT22;18384;48.860;9.188;2023-04-25T00:00:31;11.00;97.50
31819;DHT22;18384;48.860;9.188;2023-04-25T00:02:57;11.10;97.80
31819;DHT22;18384;48.860;9.188;2023-04-25T00:05:28;11.10;97.60
31819;DHT22;18384;48.860;9.188;2023-04-25T00:07:57;11.00;97.80
31819;DHT22;18384;48.860;9.188;2023-04-25T00:10:23;11.00;97.80
31819;DHT22;18384;48.860;9.188;2023-04-25T00:12:49;11.00;97.70
31819;DHT22;18384;48.860;9.188;2023-04-25T00:15:16;10.90;97.60
31819;DHT22;18384;48.860;9.188;2023-04-25T00:17:42;10.90;98.00
31819;DHT22;18384;48.860;9.188;2023-04-25T00:20:08;10.80;98.10
31819;DHT22;18384;48.860;9.188;2023-04-25T00:22:35;10.80;98.20
31819;DHT22;18384;48.860;9.188;2023-04-25T00:25:04;10.80;98.50
31819;DHT22;18384;48.860;9.188;2023-04-25T00:27:31;10.80;98.50
31819;DHT22;18384;48.860;9.188;2023-04-25T00:29:57;10.90;98.00
31819;DHT22;18384;48.860;9.188;2023-04-25T00:32:24;10.90;97.90
31819;DHT22;18384;48.860;9.188;2023-04-25T00:34:50;10.80;98.00
31819;DHT22;18384;48.860;9.188;2023-04-25T00:37:16;10.80;97.90
31819;DHT22;18384;48.860;9.188;2023-04-25T00:39:43;10.80;97.80
31819;DHT22;18384;48.860;9.188;2023-04-25T00:42:10;10.90;98.30
31819;DHT22;18384;48.860;9.188;2023-04-25T00:44:37;10.90;98.10
31819;DHT22;18384;48.860;9.188;2023-04-25T00:47:03;11.00;97.90
31819;DHT22;18384;48.860;9.188;2023-04-25T00:49:30;11.00;97.70
31819;DHT22;18384;48.860;9.188;2023-04-25T00:51:56;11.00;97.40
31819;DHT22;18384;48.860;9.188;2023-04-25T00:54:22;11.00;97.70
31819;DHT22;18384;48.860;9.188;2023-04-25T00:56:49;11.00;97.80
31819;DHT22;18384;48.860;9.188;2023-04-25T00:59:15;11.00;97.70
31819;DHT22;18384;48.860;9.188;2023-04-25T01:01:41;11.00;97.60
31819;DHT22;18384;48.860;9.188;2023-04-25T01:04:08;11.00;97.70
31819;DHT22;18384;48.860;9.188;2023-04-25T01:06:34;11.00;97.60
31819;DHT22;18384;48.860;9.188;2023-04-25T01:09:02;11.00;97.70
31819;DHT22;18384;48.860;9.188;2023-04-25T01:11:28;10.90;97.60
31819;DHT22;18384;48.860;9.188;2023-04-25T01:13:55;10.90;97.90
31819;DHT22;18384;48.860;9.188;2023-04-25T01:16:21;10.90;98.00
31819;DHT22;18384;48.860;9.188;2023-04-25T01:18:50;10.90;97.60
31819;DHT22;18384;48.860;9.188;2023-04-25T01:21:16;10.90;97.80
31819;DHT22;18384;48.860;9.188;2023-04-25T01:23:43;10.80;97.30
31819;DHT22;18384;48.860;9.188;2023-04-25T01:26:10;10.80;97.70
31819;DHT22;18384;48.860;9.188;2023-04-25T01:28:38;10.80;97.60
31819;DHT22;18384;48.860;9.188;2023-04-25T01:31:08;10.70;97.40
31819;DHT22;18384;48.860;9.188;2023-04-25T01:33:34;10.70;97.10
31819;DHT22;18384;48.860;9.188;2023-04-25T01:36:00;10.70;96.90
31819;DHT22;18384;48.860;9.188;2023-04-25T01:38:27;10.70;97.20
31819;DHT22;18384;48.860;9.188;2023-04-25T01:40:53;10.60;97.20
31819;DHT22;18384;48.860;9.188;2023-04-25T01:43:20;10.60;97.30
31819;DHT22;18384;48.860;9.188;2023-04-25T01:45:46;10.60;97.20
31819;DHT22;18384;48.860;9.188;2023-04-25T01:48:13;10.60;97.20
31819;DHT22;18384;48.860;9.188;2023-04-25T01:50:41;10.70;97.20
31819;DHT22;18384;48.860;9.188;2023-04-25T01:53:09;10.70;97.10
31819;DHT22;18384;48.860;9.188;2023-04-25T01:55:36;10.70;97.10
31819;DHT22;18384;48.860;9.188;2023-04-25T01:58:03;10.60;97.20
31819;DHT22;18384;48.860;9.188;2023-04-25T02:00:29;10.60;97.20
31819;DHT22;18384;48.860;9.188;2023-04-25T02:02:58;10.60;96.90
31819;DHT22;18384;48.860;9.188;2023-04-25T02:05:24;10.60;97.40
31819;DHT22;18384;48.860;9.188;2023-04-25T02:07:50;10.60;97.10
31819;DHT22;18384;48.860;9.188;2023-04-25T02:10:16;10.60;97.20
31819;DHT22;18384;48.860;9.188;2023-04-25T02:12:42;10.70;97.30
31819;DHT22;18384;48.860;9.188;2023-04-25T02:15:09;10.70;97.70
31819;DHT22;18384;48.860;9.188;2023-04-25T02:17:36;10.70;97.80
31819;DHT22;18384;48.860;9.188;2023-04-25T02:20:02;10.70;97.80
31819;DHT22;18384;48.860;9.188;2023-04-25T02:22:28;10.70;98.10
31819;DHT22;18384;48.860;9.188;2023-04-25T02:24:55;10.60;98.10
31819;DHT22;18384;48.860;9.188;2023-04-25T02:27:22;10.60;98.20
31819;DHT22;18384;48.860;9.188;2023-04-25T02:29:48;10.60;99.00
31819;DHT22;18384;48.860;9.188;2023-04-25T02:32:14;10.60;98.60
31819;DHT22;18384;48.860;9.188;2023-04-25T02:34:40;10.60;98.70
31819;DHT22;18384;48.860;9.188;2023-04-25T02:37:06;10.50;98.90
31819;DHT22;18384;48.860;9.188;2023-04-25T02:39:32;10.50;98.80
31819;DHT22;18384;48.860;9.188;2023-04-25T02:41:58;10.50;98.70
31819;DHT22;18384;48.860;9.188;2023-04-25T02:44:24;10.50;98.70
31819;DHT22;18384;48.860;9.188;2023-04-25T02:46:50;10.50;98.90
31819;DHT22;18384;48.860;9.188;2023-04-25T02:49:16;10.50;98.60
31819;DHT22;18384;48.860;9.188;2023-04-25T02:51:43;10.50;98.90
31819;DHT22;18384;48.860;9.188;2023-04-25T02:54:09;10.60;99.10
31819;DHT22;18384;48.860;9.188;2023-04-25T02:56:35;10.60;98.50
31819;DHT22;18384;48.860;9.188;2023-04-25T02:59:01;10.70;98.70
31819;DHT22;18384;48.860;9.188;2023-04-25T03:01:27;10.70;98.50
31819;DHT22;18384;48.860;9.188;2023-04-25T03:03:53;10.70;98.40
31819;DHT22;18384;48.860;9.188;2023-04-25T03:06:19;10.70;99.20
31819;DHT22;18384;48.860;9.188;2023-04-25T03:08:45;10.60;99.30
31819;DHT22;18384;48.860;9.188;2023-04-25T03:11:11;10.60;98.90
31819;DHT22;18384;48.860;9.188;2023-04-25T03:13:38;10.60;98.90
31819;DHT22;18384;48.860;9.188;2023-04-25T03:16:04;10.60;98.70
31819;DHT22;18384;48.860;9.188;2023-04-25T03:18:30;10.60;98.50
31819;DHT22;18384;48.860;9.188;2023-04-25T03:20:57;10.60;98.70
31819;DHT22;18384;48.860;9.188;2023-04-25T03:23:23;10.50;98.80
31819;DHT22;18384;48.860;9.188;2023-04-25T03:25:49;10.50;99.00
31819;DHT22;18384;48.860;9.188;2023-04-25T03:28:15;10.40;98.80
31819;DHT22;18384;48.860;9.188;2023-04-25T03:30:41;9.50;98.50
31819;DHT22;18384;48.860;9.188;2023-04-25T03:33:08;10.50;98.80
31819;DHT22;18384;48.860;9.188;2023-04-25T03:35:34;10.50;99.00
31819;DHT22;18384;48.860;9.188;2023-04-25T03:38:00;10.60;98.90
31819;DHT22;18384;48.860;9.188;2023-04-25T03:40:26;10.60;98.50
31819;DHT22;18384;48.860;9.188;2023-04-25T03:42:52;10.50;98.60
31819;DHT22;18384;48.860;9.188;2023-04-25T03:45:18;10.50;98.50
31819;DHT22;18384;48.860;9.188;2023-04-25T03:47:44;10.50;98.30
31819;DHT22;18384;48.860;9.188;2023-04-25T03:50:10;10.50;98.40
31819;DHT22;18384;48.860;9.188;2023-04-25T03:52:37;10.50;98.80
31819;DHT22;18384;48.860;9.188;2023-04-25T03:55:03;10.50;98.40
31819;DHT22;18384;48.860;9.188;2023-04-25T03:57:30;10.60;98.20
31819;DHT22;18384;48.860;9.188;2023-04-25T03:59:56;10.60;98.30
31819;DHT22;18384;48.860;9.188;2023-04-25T04:02:22;10.50;98.10
31819;DHT22;18384;48.860;9.188;2023-04-25T04:04:48;10.50;98.40
31819;DHT22;18384;48.860;9.188;2023-04-25T04:07:14;10.50;98.30
31819;DHT22;18384;48.860;9.188;2023-04-25T04:09:40;10.40;98.30
31819;DHT22;18384;48.860;9.188;2023-04-25T04:12:06;10.40;98.40
31819;DHT22;18384;48.860;9.188;2023-04-25T04:14:33;10.40;98.20
31819;DHT22;18384;48.860;9.188;2023-04-25T04:16:59;10.40;98.40
31819;DHT22;18384;48.860;9.188;2023-04-25T04:19:25;10.30;98.50
31819;DHT22;18384;48.860;9.188;2023-04-25T04:21:51;10.30;98.70
31819;DHT22;18384;48.860;9.188;2023-04-25T04:24:17;10.30;98.60
31819;DHT22;18384;48.860;9.188;2023-04-25T04:26:43;10.20;98.80
31819;DHT22;18384;48.860;9.188;2023-04-25T04:29:10;10.30;98.70
31819;DHT22;18384;48.860;9.188;2023-04-25T04:31:36;10.30;98.70
31819;DHT22;18384;48.860;9.188;2023-04-25T04:34:03;10.20;98.70
31819;DHT22;18384;48.860;9.188;2023-04-25T04:36:30;10.30;99.00
31819;DHT22;18384;48.860;9.188;2023-04-25T04:38:56;10.30;99.20
31819;DHT22;18384;48.860;9.188;2023-04-25T04:41:23;10.30;99.00
31819;DHT22;18384;48.860;9.188;2023-04-25T04:43:49;10.30;99.10
31819;DHT22;18384;48.860;9.188;2023-04-25T04:46:15;10.30;99.10
31819;DHT22;18384;48.860;9.188;2023-04-25T04:48:41;10.30;99.20
31819;DHT22;18384;48.860;9.188;2023-04-25T04:51:08;10.40;98.70
31819;DHT22;18384;48.860;9.188;2023-04-25T04:53:34;10.40;98.70
31819;DHT22;18384;48.860;9.188;2023-04-25T04:56:00;10.40;98.50
31819;DHT22;18384;48.860;9.188;2023-04-25T04:58:26;10.40;98.20
31819;DHT22;18384;48.860;9.188;2023-04-25T05:00:54;10.50;98.50
31819;DHT22;18384;48.860;9.188;2023-04-25T05:03:20;10.50;98.50
31819;DHT22;18384;48.860;9.188;2023-04-25T05:05:46;10.50;98.40
31819;DHT22;18384;48.860;9.188;2023-04-25T05:08:13;11.30;98.80
31819;DHT22;18384;48.860;9.188;2023-04-25T05:10:39;10.50;98.50
31819;DHT22;18384;48.860;9.188;2023-04-25T05:13:05;10.50;98.20
31819;DHT22;18384;48.860;9.188;2023-04-25T05:15:31;10.60;98.00
31819;DHT22;18384;48.860;9.188;2023-04-25T05:17:57;10.60;98.30
31819;DHT22;18384;48.860;9.188;2023-04-25T05:20:23;10.70;98.50
31819;DHT22;18384;48.860;9.188;2023-04-25T05:22:49;10.70;98.00
31819;DHT22;18384;48.860;9.188;2023-04-25T05:25:16;10.80;97.80
31819;DHT22;18384;48.860;9.188;2023-04-25T05:27:42;10.90;98.20
31819;DHT22;18384;48.860;9.188;2023-04-25T05:30:08;11.00;97.40
31819;DHT22;18384;48.860;9.188;2023-04-25T05:32:35;11.10;97.90
31819;DHT22;18384;48.860;9.188;2023-04-25T05:35:01;11.10;97.90
31819;DHT22;18384;48.860;9.188;2023-04-25T05:37:28;11.20;97.50
31819;DHT22;18384;48.860;9.188;2023-04-25T05:39:56;11.20;97.50
31819;DHT22;18384;48.860;9.188;2023-04-25T05:42:22;11.00;97.70
31819;DHT22;18384;48.860;9.188;2023-04-25T05:44:48;11.10;97.80
31819;DHT22;18384;48.860;9.188;2023-04-25T05:47:14;11.10;98.30
31819;DHT22;18384;48.860;9.188;2023-04-25T05:49:40;11.00;98.50
31819;DHT22;18384;48.860;9.188;2023-04-25T05:52:07;11.00;98.60
31819;DHT22;18384;48.860;9.188;2023-04-25T05:54:33;10.90;98.60
31819;DHT22;18384;48.860;9.188;2023-04-25T05:56:59;10.90;98.70
31819;DHT22;18384;48.860;9.188;2023-04-25T05:59:25;10.90;98.50
31819;DHT22;18384;48.860;9.188;2023-04-25T06:01:51;10.80;98.60
31819;DHT22;18384;48.860;9.188;2023-04-25T06:04:17;10.80;98.10
31819;DHT22;18384;48.860;9.188;2023-04-25T06:06:43;10.80;98.20
31819;DHT22;18384;48.860;9.188;2023-04-25T06:09:09;10.80;98.30
31819;DHT22;18384;48.860;9.188;2023-04-25T06:11:35;11.00;98.50
31819;DHT22;18384;48.860;9.188;2023-04-25T06:14:02;11.10;97.80
31819;DHT22;18384;48.860;9.188;2023-04-25T06:16:28;11.10;98.10
31819;DHT22;18384;48.860;9.188;2023-04-25T06:18:54;11.20;98.00
31819;DHT22;18384;48.860;9.188;2023-04-25T06:21:20;11.30;97.50
31819;DHT22;18384;48.860;9.188;2023-04-25T06:23:46;11.30;97.50
31819;DHT22;18384;48.860;9.188;2023-04-25T06:26:12;11.40;97.50
31819;DHT22;18384;48.860;9.188;2023-04-25T06:28:38;11.40;96.90
31819;DHT22;18384;48.860;9.188;2023-04-25T06:31:05;11.50;97.10
31819;DHT22;18384;48.860;9.188;2023-04-25T06:33:31;11.60;97.30
31819;DHT22;18384;48.860;9.188;2023-04-25T06:35:57;11.60;96.70
31819;DHT22;18384;48.860;9.188;2023-04-25T06:38:23;11.70;96.80
31819;DHT22;18384;48.860;9.188;2023-04-25T06:40:49;11.80;96.80
31819;DHT22;18384;48.860;9.188;2023-04-25T06:43:15;12.00;96.60
31819;DHT22;18384;48.860;9.188;2023-04-25T06:45:41;12.10;96.30
31819;DHT22;18384;48.860;9.188;2023-04-25T06:48:07;12.30;96.10
31819;DHT22;18384;48.860;9.188;2023-04-25T06:50:34;12.50;95.60
31819;DHT22;18384;48.860;9.188;2023-04-25T06:53:00;12.50;95.60
31819;DHT22;18384;48.860;9.188;2023-04-25T06:55:27;12.60;95.60
31819;DHT22;18384;48.860;9.188;2023-04-25T06:57:53;12.70;95.30
31819;DHT22;18384;48.860;9.188;2023-04-25T07:00:19;12.80;95.50
31819;DHT22;18384;48.860;9.188;2023-04-25T07:02:46;11.90;95.00
31819;DHT22;18384;48.860;9.188;2023-04-25T07:05:12;12.90;95.10
31819;DHT22;18384;48.860;9.188;2023-04-25T07:07:38;12.80;94.80
31819;DHT22;18384;48.860;9.188;2023-04-25T07:10:05;12.70;94.90
31819;DHT22;18384;48.860;9.188;2023-04-25T07:12:31;12.50;94.50
31819;DHT22;18384;48.860;9.188;2023-04-25T07:14:57;12.40;95.00
31819;DHT22;18384;48.860;9.188;2023-04-25T07:17:23;12.30;95.30
31819;DHT22;18384;48.860;9.188;2023-04-25T07:19:49;12.30;95.80
31819;DHT22;18384;48.860;9.188;2023-04-25T07:22:15;12.30;95.60
31819;DHT22;18384;48.860;9.188;2023-04-25T07:24:41;12.10;95.40
31819;DHT22;18384;48.860;9.188;2023-04-25T07:27:08;12.10;95.40
31819;DHT22;18384;48.860;9.188;2023-04-25T07:29:34;12.00;96.20
31819;DHT22;18384;48.860;9.188;2023-04-25T07:32:02;12.00;96.20
31819;DHT22;18384;48.860;9.188;2023-04-25T07:34:28;11.90;95.60
31819;DHT22;18384;48.860;9.188;2023-04-25T07:36:55;11.90;95.90
31819;DHT22;18384;48.860;9.188;2023-04-25T07:39:21;11.70;95.70
31819;DHT22;18384;48.860;9.188;2023-04-25T07:41:48;11.70;96.20
31819;DHT22;18384;48.860;9.188;2023-04-25T07:44:14;11.70;96.50
31819;DHT22;18384;48.860;9.188;2023-04-25T07:46:40;11.70;96.60
31819;DHT22;18384;48.860;9.188;2023-04-25T07:49:07;11.60;96.70
31819;DHT22;18384;48.860;9.188;2023-04-25T07:51:33;11.60;97.40
31819;DHT22;18384;48.860;9.188;2023-04-25T07:53:59;11.60;97.20
31819;DHT22;18384;48.860;9.188;2023-04-25T07:56:26;11.70;97.10
31819;DHT22;18384;48.860;9.188;2023-04-25T07:58:52;11.70;97.40
31819;DHT22;18384;48.860;9.188;2023-04-25T08:01:18;11.70;96.80
31819;DHT22;18384;48.860;9.188;2023-04-25T08:03:46;11.70;96.70
31819;DHT22;18384;48.860;9.188;2023-04-25T08:06:13;11.70;96.80
31819;DHT22;18384;48.860;9.188;2023-04-25T08:08:39;11.60;97.30
31819;DHT22;18384;48.860;9.188;2023-04-25T08:11:05;11.50;97.10
31819;DHT22;18384;48.860;9.188;2023-04-25T08:13:31;11.50;97.40
31819;DHT22;18384;48.860;9.188;2023-04-25T08:15:57;11.40;97.10
31819;DHT22;18384;48.860;9.188;2023-04-25T08:18:23;11.40;97.10
31819;DHT22;18384;48.860;9.188;2023-04-25T08:20:49;11.30;97.30
31819;DHT22;18384;48.860;9.188;2023-04-25T08:23:16;11.30;97.70
31819;DHT22;18384;48.860;9.188;2023-04-25T08:25:42;10.90;97.80
31819;DHT22;18384;48.860;9.188;2023-04-25T08:28:08;11.20;98.30
31819;DHT22;18384;48.860;9.188;2023-04-25T08:30:34;11.30;98.20
31819;DHT22;18384;48.860;9.188;2023-04-25T08:33:00;11.20;98.90
31819;DHT22;18384;48.860;9.188;2023-04-25T08:35:26;11.10;98.90
31819;DHT22;18384;48.860;9.188;2023-04-25T08:37:52;11.00;99.20
31819;DHT22;18384;48.860;9.188;2023-04-25T08:40:19;11.10;99.40
31819;DHT22;18384;48.860;9.188;2023-04-25T08:42:53;11.10;99.30
31819;DHT22;18384;48.860;9.188;2023-04-25T08:45:19;11.00;99.80
31819;DHT22;18384;48.860;9.188;2023-04-25T08:47:46;11.00;99.60
31819;DHT22;18384;48.860;9.188;2023-04-25T08:50:14;11.00;99.90
31819;DHT22;18384;48.860;9.188;2023-04-25T08:52:44;10.90;99.80
31819;DHT22;18384;48.860;9.188;2023-04-25T08:55:12;10.90;99.00
31819;DHT22;18384;48.860;9.188;2023-04-25T08:57:40;10.90;99.00
31819;DHT22;18384;48.860;9.188;2023-04-25T09:00:09;10.90;99.20
31819;DHT22;18384;48.860;9.188;2023-04-25T09:02:39;10.80;99.30
31819;DHT22;18384;48.860;9.188;2023-04-25T09:05:06;10.80;99.40
31819;DHT22;18384;48.860;9.188;2023-04-25T09:07:32;10.80;99.50
31819;DHT22;18384;48.860;9.188;2023-04-25T09:09:59;10.80;99.70
31819;DHT22;18384;48.860;9.188;2023-04-25T09:12:29;10.80;99.90
31819;DHT22;18384;48.860;9.188;2023-04-25T09:15:07;10.80;99.50
31819;DHT22;18384;48.860;9.188;2023-04-25T09:17:38;10.80;99.90
31819;DHT22;18384;48.860;9.188;2023-04-25T09:20:14;10.80;99.90
31819;DHT22;18384;48.860;9.188;2023-04-25T09:22:40;10.80;99.90
31819;DHT22;18384;48.860;9.188;2023-04-25T09:25:10;10.80;99.10
31819;DHT22;18384;48.860;9.188;2023-04-25T09:27:57;10.80;98.90
31819;DHT22;18384;48.860;9.188;2023-04-25T09:30:31;10.80;99.90
31819;DHT22;18384;48.860;9.188;2023-04-25T09:33:03;10.80;99.90
31819;DHT22;18384;48.860;9.188;2023-04-25T09:35:36;11.80;99.90
31819;DHT22;18384;48.860;9.188;2023-04-25T09:38:14;10.80;99.90
31819;DHT22;18384;48.860;9.188;2023-04-25T09:40:46;10.80;99.90
31819;DHT22;18384;48.860;9.188;2023-04-25T09:43:22;10.80;99.90
31819;DHT22;18384;48.860;9.188;2023-04-25T09:45:49;10.70;99.90
31819;DHT22;18384;48.860;9.188;2023-04-25T09:48:21;10.80;99.90
31819;DHT22;18384;48.860;9.188;2023-04-25T09:51:13;10.80;99.90
31819;DHT22;18384;48.860;9.188;2023-04-25T09:53:48;10.80;99.90
31819;DHT22;18384;48.860;9.188;2023-04-25T09:56:16;10.70;99.90
31819;DHT22;18384;48.860;9.188;2023-04-25T09:58:42;10.70;99.90
31819;DHT22;18384;48.860;9.188;2023-04-25T10:01:09;10.70;99.90
31819;DHT22;18384;48.860;9.188;2023-04-25T10:03:37;10.60;99.90
31819;DHT22;18384;48.860;9.188;2023-04-25T10:06:09;10.50;99.90
31819;DHT22;18384;48.860;9.188;2023-04-25T10:08:38;10.50;99.90
31819;DHT22;18384;48.860;9.188;2023-04-25T10:11:06;10.50;99.90
31819;DHT22;18384;48.860;9.188;2023-04-25T10:13:34;10.40;99.90
31819;DHT22;18384;48.860;9.188;2023-04-25T10:16:03;10.40;99.90
31819;DHT22;18384;48.860;9.188;2023-04-25T10:18:31;10.40;99.90
31819;DHT22;18384;48.860;9.188;2023-04-25T10:21:02;10.40;99.90
31819;DHT22;18384;48.860;9.188;2023-04-25T10:23:31;10.40;99.90
31819;DHT22;18384;48.860;9.188;2023-04-25T10:25:58;10.30;99.90
31819;DHT22;18384;48.860;9.188;2023-04-25T10:28:25;10.20;99.90
31819;DHT22;18384;48.860;9.188;2023-04-25T10:30:58;10.20;99.90
31819;DHT22;18384;48.860;9.188;2023-04-25T10:33:38;10.10;99.90
31819;DHT22;18384;48.860;9.188;2023-04-25T10:38:58;9.90;99.90
31819;DHT22;18384;48.860;9.188;2023-04-25T10:41:45;9.80;99.90
31819;DHT22;18384;48.860;9.188;2023-04-25T10:44:13;9.80;99.90
31819;DHT22;18384;48.860;9.188;2023-04-25T10:46:40;9.80;99.90
31819;DHT22;18384;48.860;9.188;2023-04-25T10:49:08;9.80;99.90
31819;DHT22;18384;48.860;9.188;2023-04-25T10:51:36;9.80;99.90
31819;DHT22;18384;48.860;9.188;2023-04-25T10:54:04;9.90;99.90
31819;DHT22;18384;48.860;9.188;2023-04-25T10:56:32;9.90;99.90
31819;DHT22;18384;48.860;9.188;2023-04-25T10:59:14;9.90;99.90
31819;DHT22;18384;48.860;9.188;2023-04-25T11:01:43;9.90;99.90
31819;DHT22;18384;48.860;9.188;2023-04-25T11:04:46;10.10;99.90
31819;DHT22;18384;48.860;9.188;2023-04-25T11:07:50;10.10;99.90
31819;DHT22;18384;48.860;9.188;2023-04-25T11:10:18;10.20;99.90
31819;DHT22;18384;48.860;9.188;2023-04-25T11:12:45;10.40;99.90
31819;DHT22;18384;48.860;9.188;2023-04-25T11:15:13;10.50;99.90
31819;DHT22;18384;48.860;9.188;2023-04-25T11:17:39;10.60;99.90
31819;DHT22;18384;48.860;9.188;2023-04-25T11:20:07;10.70;99.90
31819;DHT22;18384;48.860;9.188;2023-04-25T11:22:38;10.80;99.90
31819;DHT22;18384;48.860;9.188;2023-04-25T11:25:08;10.90;99.90
31819;DHT22;18384;48.860;9.188;2023-04-25T11:27:49;10.90;99.90
31819;DHT22;18384;48.860;9.188;2023-04-25T11:30:19;11.00;99.90
31819;DHT22;18384;48.860;9.188;2023-04-25T11:32:46;11.00;99.90
31819;DHT22;18384;48.860;9.188;2023-04-25T11:35:12;11.00;99.90
31819;DHT22;18384;48.860;9.188;2023-04-25T11:37:43;11.00;99.90
31819;DHT22;18384;48.860;9.188;2023-04-25T11:40:10;11.00;99.90
31819;DHT22;18384;48.860;9.188;2023-04-25T11:42:38;11.00;99.90
31819;DHT22;18384;48.860;9.188;2023-04-25T11:45:05;11.00;99.90
31819;DHT22;18384;48.860;9.188;2023-04-25T11:47:32;11.10;99.90
31819;DHT22;18384;48.860;9.188;2023-04-25T11:50:00;11.20;99.90
31819;DHT22;18384;48.860;9.188;2023-04-25T11:52:44;11.20;99.40
31819;DHT22;18384;48.860;9.188;2023-04-25T11:55:16;11.20;99.70
31819;DHT22;18384;48.860;9.188;2023-04-25T11:57:45;11.20;99.70
31819;DHT22;18384;48.860;9.188;2023-04-25T12:00:20;11.20;98.90
31819;DHT22;18384;48.860;9.188;2023-04-25T12:02:53;11.10;99.10
31819;DHT22;18384;48.860;9.188;2023-04-25T12:05:20;11.00;99.70
31819;DHT22;18384;48.860;9.188;2023-04-25T12:07:48;10.90;99.90
31819;DHT22;18384;48.860;9.188;2023-04-25T12:10:16;10.80;99.90
31819;DHT22;18384;48.860;9.188;2023-04-25T12:12:45;10.90;99.90
31819;DHT22;18384;48.860;9.188;2023-04-25T12:15:23;11.00;99.90
31819;DHT22;18384;48.860;9.188;2023-04-25T12:17:51;11.00;99.90
31819;DHT22;18384;48.860;9.188;2023-04-25T12:20:20;11.00;99.90
31819;DHT22;18384;48.860;9.188;2023-04-25T12:22:49;11.00;99.40
31819;DHT22;18384;48.860;9.188;2023-04-25T12:25:38;10.90;99.40
31819;DHT22;18384;48.860;9.188;2023-04-25T12:28:22;10.90;99.80
31819;DHT22;18384;48.860;9.188;2023-04-25T12:31:50;10.90;99.90
31819;DHT22;18384;48.860;9.188;2023-04-25T12:34:18;11.00;99.90
31819;DHT22;18384;48.860;9.188;2023-04-25T12:36:44;11.20;99.90
31819;DHT22;18384;48.860;9.188;2023-04-25T12:39:18;11.40;99.60
31819;DHT22;18384;48.860;9.188;2023-04-25T12:41:46;11.70;99.70
31819;DHT22;18384;48.860;9.188;2023-04-25T12:44:12;12.00;99.30
31819;DHT22;18384;48.860;9.188;2023-04-25T12:46:39;12.30;98.60
31819;DHT22;18384;48.860;9.188;2023-04-25T12:49:06;12.60;98.00
31819;DHT22;18384;48.860;9.188;2023-04-25T12:51:36;12.60;98.70
31819;DHT22;18384;48.860;9.188;2023-04-25T12:54:03;12.50;99.10
31819;DHT22;18384;48.860;9.188;2023-04-25T12:56:33;12.50;98.70
31819;DHT22;18384;48.860;9.188;2023-04-25T12:58:59;12.40;98.30
31819;DHT22;18384;48.860;9.188;2023-04-25T13:01:26;12.30;98.10
31819;DHT22;18384;48.860;9.188;2023-04-25T13:03:52;12.40;98.80
31819;DHT22;18384;48.860;9.188;2023-04-25T13:06:19;12.60;98.40
31819;DHT22;18384;48.860;9.188;2023-04-25T13:08:46;12.60;97.60
31819;DHT22;18384;48.860;9.188;2023-04-25T13:11:12;12.60;97.90
31819;DHT22;18384;48.860;9.188;2023-04-25T13:13:40;12.60;97.90
31819;DHT22;18384;48.860;9.188;2023-04-25T13:16:06;12.60;97.60
31819;DHT22;18384;48.860;9.188;2023-04-25T13:18:33;12.70;96.80
31819;DHT22;18384;48.860;9.188;2023-04-25T13:20:59;12.90;96.30
31819;DHT22;18384;48.860;9.188;2023-04-25T13:23:27;12.90;98.10
31819;DHT22;18384;48.860;9.188;2023-04-25T13:25:54;13.00;98.00
31819;DHT22;18384;48.860;9.188;2023-04-25T13:28:20;12.90;97.60
31819;DHT22;18384;48.860;9.188;2023-04-25T13:30:47;12.90;96.20
31819;DHT22;18384;48.860;9.188;2023-04-25T13:33:14;12.90;96.30
31819;DHT22;18384;48.860;9.188;2023-04-25T13:35:41;12.80;96.60
31819;DHT22;18384;48.860;9.188;2023-04-25T13:38:07;12.70;98.10
31819;DHT22;18384;48.860;9.188;2023-04-25T13:40:34;12.70;96.70
31819;DHT22;18384;48.860;9.188;2023-04-25T13:43:01;12.80;96.30
31819;DHT22;18384;48.860;9.188;2023-04-25T13:45:27;12.70;97.70
31819;DHT22;18384;48.860;9.188;2023-04-25T13:47:53;12.70;97.10
31819;DHT22;18384;48.860;9.188;2023-04-25T13:50:20;12.70;96.40
31819;DHT22;18384;48.860;9.188;2023-04-25T13:52:46;12.80;96.70
31819;DHT22;18384;48.860;9.188;2023-04-25T13:55:13;12.90;97.20
31819;DHT22;18384;48.860;9.188;2023-04-25T13:57:39;13.00;97.00
31819;DHT22;18384;48.860;9.188;2023-04-25T14:00:05;13.10;97.60
31819;DHT22;18384;48.860;9.188;2023-04-25T14:02:38;13.20;97.10
31819;DHT22;18384;48.860;9.188;2023-04-25T14:05:04;13.20;96.40
31819;DHT22;18384;48.860;9.188;2023-04-25T14:07:31;13.20;96.90
31819;DHT22;18384;48.860;9.188;2023-04-25T14:09:58;13.20;96.80
31819;DHT22;18384;48.860;9.188;2023-04-25T14:12:24;13.30;95.60
31819;DHT22;18384;48.860;9.188;2023-04-25T14:14:50;13.30;94.90
31819;DHT22;18384;48.860;9.188;2023-04-25T14:17:18;13.40;96.80
31819;DHT22;18384;48.860;9.188;2023-04-25T14:19:45;13.30;95.90
31819;DHT22;18384;48.860;9.188;2023-04-25T14:22:11;13.30;95.50
31819;DHT22;18384;48.860;9.188;2023-04-25T14:24:37;13.30;95.00
31819;DHT22;18384;48.860;9.188;2023-04-25T14:27:03;13.20;95.90
31819;DHT22;18384;48.860;9.188;2023-04-25T14:29:30;13.30;95.80
31819;DHT22;18384;48.860;9.188;2023-04-25T14:31:56;13.30;94.80
31819;DHT22;18384;48.860;9.188;2023-04-25T14:34:24;13.30;94.80
31819;DHT22;18384;48.860;9.188;2023-04-25T14:36:51;13.20;94.80
31819;DHT22;18384;48.860;9.188;2023-04-25T14:39:17;13.20;95.80
31819;DHT22;18384;48.860;9.188;2023-04-25T14:41:44;13.10;95.70
31819;DHT22;18384;48.860;9.188;2023-04-25T14:44:10;13.10;95.60
31819;DHT22;18384;48.860;9.188;2023-04-25T14:46:36;12.90;95.30
31819;DHT22;18384;48.860;9.188;2023-04-25T14:49:02;12.30;94.80
31819;DHT22;18384;48.860;9.188;2023-04-25T14:51:29;12.70;95.60
31819;DHT22;18384;48.860;9.188;2023-04-25T14:53:56;12.80;95.50
31819;DHT22;18384;48.860;9.188;2023-04-25T14:56:23;12.90;95.30
31819;DHT22;18384;48.860;9.188;2023-04-25T14:58:49;12.80;95.00
31819;DHT22;18384;48.860;9.188;2023-04-25T15:01:15;12.80;95.50
31819;DHT22;18384;48.860;9.188;2023-04-25T15:03:41;12.90;95.30
31819;DHT22;18384;48.860;9.188;2023-04-25T15:06:08;12.90;95.70
31819;DHT22;18384;48.860;9.188;2023-04-25T15:08:34;12.90;96.20
31819;DHT22;18384;48.860;9.188;2023-04-25T15:11:01;13.00;96.40
31819;DHT22;18384;48.860;9.188;2023-04-25T15:13:28;13.00;94.40
31819;DHT22;18384;48.860;9.188;2023-04-25T15:15:54;12.90;94.00
31819;DHT22;18384;48.860;9.188;2023-04-25T15:18:21;12.90;95.00
31819;DHT22;18384;48.860;9.188;2023-04-25T15:20:50;13.10;94.50
31819;DHT22;18384;48.860;9.188;2023-04-25T15:23:17;13.10;94.70
31819;DHT22;18384;48.860;9.188;2023-04-25T15:25:44;13.10;94.40
31819;DHT22;18384;48.860;9.188;2023-04-25T15:28:10;13.10;93.90
31819;DHT22;18384;48.860;9.188;2023-04-25T15:30:36;13.10;93.80
31819;DHT22;18384;48.860;9.188;2023-04-25T15:33:02;13.10;94.00
31819;DHT22;18384;48.860;9.188;2023-04-25T15:35:28;13.10;94.00
31819;DHT22;18384;48.860;9.188;2023-04-25T15:37:54;13.10;94.50